Startpagina
METAR-TAF:

METAR-TAF

Vliegvelden :

Ndjamena, Tsjaad

breedte: 12-08N, lengte: 015-02E, hoogte: 295 m

Actueel weer

Dit bericht is 1 uur en het 14 minuten geleden gemaakt, om 11:00 UTC
Wind 6 kt uit het zuiden, variërend tussen het zuiden en het noordwesten
Temperatuur 39°C
Vochtigheid 31%
Druk 1008 hPa
Zicht 10 km of meer
Weinig wolken op 4000 ft

METAR: FTTJ 251100Z 18006KT 180V320 9999 FEW040 39/19 Q1008 NOSIG

Tijdstip: 13:14 (12:14 UTC)

Verwachting

Dit bericht is 1 uur en het 10 minuten geleden gemaakt, om 11:04 UTC
Verwachting geldig van 25 om 12 UTC tot 26 om 18 UTC
Wind 10 kt uit het zuidzuidwesten
Zicht 10 km of meer
geen wolken onder 1500 m en geen cumulonimbus
Kans 30% :
Tijdelijke
van 25 om 15 UTC tot 25 om 20 UTC
Wind 15 kt uit variabele richting met uitschieters tot 25 kt
Zicht: 4000 m
onweer
Tijdelijke
van 26 om 14 UTC tot 26 om 18 UTC
onweer

TAF: FTTJ 251104Z 2512/2618 20010KT CAVOK PROB30 TEMPO 2515/2520 VRB15G25KT 4000 TS DS TEMPO 2614/2618 TS

Waarnemingen en weersverwachtingen van meer dan 4000 vliegvelden (METAR en TAF).

De beschikbare stations zijn de gele en rode punten op de kaart.

Ga met uw muis naar het station om de naam te zien.

Klik dan om waarnemingen en weersverwachtingen te zien.

kaart wijzigen: klik op de groene knoppen met een zwart kruis om in te zoomen, op de groene knop met een streepje om uit te zoomen of op de groene pijlen voor aangrenzende kaarten.


METAR-TAF: